Time;durP1;ratioP1;P1;durP2;ratioP2;P2;SDS_P1;SDS_P2;PMS_P1;PMS_P2;Temp;Humidity;BMP_temperature;BMP_pressure;BME280_temperature;BME280_humidity;BME280_pressure;Samples;Min_cycle;Max_cycle;Signal;HPM_P1;HPM_P2
2023/04/06 00:00:14;;;;;;;18.15;9.10;;;;;;;-1.02;94.47;94020.00;4991560;28;20042;-68
2023/04/06 00:02:41;;;;;;;17.10;8.95;;;;;;;-1.12;95.62;94020.47;5006044;28;20810;-67
2023/04/06 00:05:08;;;;;;;16.77;8.95;;;;;;;-1.19;96.07;94006.78;4991353;28;20454;-68
2023/04/06 00:07:34;;;;;;;54.67;26.48;;;;;;;-1.19;95.76;94018.31;4990655;28;20046;-66
2023/04/06 00:10:02;;;;;;;18.03;9.60;;;;;;;-1.15;96.48;94018.44;4990984;28;20690;-68
2023/04/06 00:12:29;;;;;;;20.88;10.52;;;;;;;-1.20;96.05;94016.78;4990387;28;20046;-68
2023/04/06 00:14:56;;;;;;;18.52;9.15;;;;;;;-1.25;95.71;94015.09;4990979;28;20046;-67
2023/04/06 00:17:22;;;;;;;19.52;10.10;;;;;;;-1.27;96.04;94011.16;4990275;28;20363;-68
2023/04/06 00:19:49;;;;;;;22.60;10.25;;;;;;;-1.32;95.90;94014.88;4990826;28;20491;-68
2023/04/06 00:22:16;;;;;;;19.90;9.90;;;;;;;-1.32;96.01;94017.56;4990541;28;20480;-66
2023/04/06 00:24:42;;;;;;;20.50;10.10;;;;;;;-1.37;95.99;94011.59;4990756;28;20046;-68
2023/04/06 00:27:09;;;;;;;20.40;9.80;;;;;;;-1.33;96.14;94009.81;4973498;28;20133;-67
2023/04/06 00:29:36;;;;;;;18.88;9.63;;;;;;;-1.38;97.25;94007.38;4990255;28;20041;-68
2023/04/06 00:32:03;;;;;;;18.10;9.90;;;;;;;-1.40;97.06;94007.69;4990431;28;20072;-68
2023/04/06 00:34:30;;;;;;;19.03;9.80;;;;;;;-1.48;97.00;93998.59;4989979;28;20050;-68
2023/04/06 00:36:56;;;;;;;18.05;9.13;;;;;;;-1.44;98.42;94006.81;4977987;28;20069;-66
2023/04/06 00:39:23;;;;;;;17.15;9.70;;;;;;;-1.42;98.77;93999.94;4970655;28;20132;-67
2023/04/06 00:41:52;;;;;;;21.48;9.60;;;;;;;-1.50;98.76;94006.22;4989736;28;20046;-68
2023/04/06 00:44:20;;;;;;;18.00;9.38;;;;;;;-1.50;100.00;93992.00;4977018;28;20046;-68
2023/04/06 00:46:46;;;;;;;16.87;9.33;;;;;;;-1.55;99.38;93993.03;4990405;28;20371;-68
2023/04/06 00:49:13;;;;;;;18.83;9.65;;;;;;;-1.53;100.00;94003.41;4990492;28;20505;-68
2023/04/06 00:51:40;;;;;;;20.00;9.52;;;;;;;-1.57;100.00;93994.47;4989200;28;20448;-68
2023/04/06 00:54:07;;;;;;;17.10;9.27;;;;;;;-1.59;100.00;93999.38;4990409;28;20054;-66
2023/04/06 00:56:34;;;;;;;19.63;10.02;;;;;;;-1.59;100.00;93986.72;4989927;28;20472;-66
2023/04/06 00:59:01;;;;;;;17.80;9.43;;;;;;;-1.62;100.00;93984.72;4977500;28;20038;-66
2023/04/06 01:01:28;;;;;;;18.70;9.68;;;;;;;-1.69;100.00;93992.53;4989618;28;20062;-67
2023/04/06 01:03:55;;;;;;;18.60;9.95;;;;;;;-1.75;100.00;93993.88;4990333;28;20050;-69
2023/04/06 01:06:22;;;;;;;18.35;9.93;;;;;;;-1.75;100.00;93981.25;4989402;28;20485;-68
2023/04/06 01:08:49;;;;;;;19.38;9.48;;;;;;;-1.84;100.00;93988.63;4990165;28;20553;-67
2023/04/06 01:11:15;;;;;;;17.93;9.40;;;;;;;-1.86;100.00;93983.56;4989794;28;20046;-68
2023/04/06 01:13:42;;;;;;;21.25;10.30;;;;;;;-1.85;100.00;93987.03;4989988;28;20051;-67
2023/04/06 01:16:09;;;;;;;22.83;10.77;;;;;;;-1.85;100.00;93987.84;4990012;28;20058;-67
2023/04/06 01:18:37;;;;;;;17.73;9.48;;;;;;;-1.88;100.00;93988.50;4989545;28;20046;-68
2023/04/06 01:21:04;;;;;;;19.05;9.70;;;;;;;-1.91;100.00;93978.44;4989888;28;20495;-69
2023/04/06 01:23:31;;;;;;;18.23;9.13;;;;;;;-1.94;100.00;93975.59;4989095;28;20518;-68
2023/04/06 01:25:58;;;;;;;20.38;9.68;;;;;;;-1.94;100.00;93987.16;4990073;28;20078;-67
2023/04/06 01:28:24;;;;;;;18.67;9.23;;;;;;;-1.99;100.00;93981.19;4989385;28;20125;-69
2023/04/06 01:30:51;;;;;;;18.42;10.05;;;;;;;-2.01;100.00;93970.78;4977192;28;20052;-67
2023/04/06 01:33:18;;;;;;;20.50;10.23;;;;;;;-2.05;100.00;93978.75;4989028;28;20096;-68
2023/04/06 01:35:45;;;;;;;20.30;10.17;;;;;;;-2.07;100.00;93964.84;4986725;28;20060;-68
2023/04/06 01:38:12;;;;;;;20.65;10.00;;;;;;;-2.10;100.00;93978.16;4961646;28;20035;-67
2023/04/06 01:40:38;;;;;;;18.45;9.77;;;;;;;-2.13;100.00;93973.44;4980925;28;20042;-68
2023/04/06 01:43:06;;;;;;;21.00;10.27;;;;;;;-2.18;100.00;93971.75;4968968;28;20055;-68
2023/04/06 01:45:33;;;;;;;20.58;10.25;;;;;;;-2.22;100.00;93971.63;4988254;28;20414;-67
2023/04/06 01:48:00;;;;;;;20.63;9.53;;;;;;;-2.21;100.00;93965.16;4989622;28;20092;-68
2023/04/06 01:50:26;;;;;;;19.38;10.00;;;;;;;-2.18;100.00;93962.91;4989154;28;20042;-68
2023/04/06 01:52:53;;;;;;;20.38;10.07;;;;;;;-2.21;100.00;93969.75;4989455;28;20112;-67
2023/04/06 01:55:20;;;;;;;20.55;10.80;;;;;;;-2.19;100.00;93966.72;4989022;28;20295;-68
2023/04/06 01:57:47;;;;;;;19.05;9.93;;;;;;;-2.26;100.00;93961.88;4989582;28;20076;-67
2023/04/06 02:00:14;;;;;;;20.10;10.37;;;;;;;-2.26;100.00;93961.88;4992248;28;20052;-67
2023/04/06 02:02:41;;;;;;;20.20;9.90;;;;;;;-2.29;100.00;93962.56;4992551;28;22504;-68
2023/04/06 02:05:08;;;;;;;21.40;10.85;;;;;;;-2.31;100.00;93962.13;4973002;28;20042;-67
2023/04/06 02:07:35;;;;;;;18.55;10.05;;;;;;;-2.32;100.00;93964.00;4987350;28;20545;-66
2023/04/06 02:10:02;;;;;;;21.58;9.70;;;;;;;-2.35;100.00;93953.94;4993151;28;20491;-67
2023/04/06 02:12:29;;;;;;;21.17;10.80;;;;;;;-2.38;100.00;93959.94;4992720;28;20038;-66
2023/04/06 02:14:55;;;;;;;19.85;10.38;;;;;;;-2.44;100.00;93962.06;4992988;28;20119;-68
2023/04/06 02:17:22;;;;;;;18.33;9.70;;;;;;;-2.44;100.00;93962.06;4992748;28;20050;-68
2023/04/06 02:19:49;;;;;;;21.85;10.65;;;;;;;-2.45;100.00;93962.41;4993367;28;20042;-67
2023/04/06 02:22:16;;;;;;;20.48;10.07;;;;;;;-2.46;100.00;93958.91;4979867;28;20046;-66
2023/04/06 02:24:43;;;;;;;20.40;10.13;;;;;;;-2.48;100.00;93961.16;4992836;28;20054;-66
2023/04/06 02:27:10;;;;;;;21.17;11.13;;;;;;;-2.50;100.00;93952.63;4993228;28;20486;-67
2023/04/06 02:29:36;;;;;;;22.15;11.35;;;;;;;-2.52;100.00;93949.50;4992487;28;20044;-68
2023/04/06 02:32:03;;;;;;;20.30;10.30;;;;;;;-2.55;100.00;93958.25;4993057;28;20092;-66
2023/04/06 02:34:30;;;;;;;21.00;10.05;;;;;;;-2.59;100.00;93959.25;4992133;28;20065;-66
2023/04/06 02:36:57;;;;;;;20.93;9.90;;;;;;;-2.61;100.00;93956.88;4979381;28;20049;-65
2023/04/06 02:39:24;;;;;;;21.65;10.15;;;;;;;-2.65;100.00;93959.44;4973911;28;20050;-67
2023/04/06 02:41:50;;;;;;;20.95;10.10;;;;;;;-2.68;100.00;93953.94;4992656;28;20448;-67
2023/04/06 02:44:17;;;;;;;23.05;11.00;;;;;;;-2.67;100.00;93950.13;4992127;28;20056;-67
2023/04/06 02:46:44;;;;;;;23.27;10.98;;;;;;;-2.70;100.00;93950.78;4993080;28;20162;-66
2023/04/06 02:49:10;;;;;;;19.83;9.93;;;;;;;-2.71;100.00;93957.28;4992926;28;20096;-62
2023/04/06 02:51:37;;;;;;;22.77;10.73;;;;;;;-2.76;100.00;93950.19;4992391;28;20057;-65
2023/04/06 02:54:04;;;;;;;22.90;10.75;;;;;;;-2.82;100.00;93960.38;4972057;28;20047;-66
2023/04/06 02:56:31;;;;;;;22.98;10.57;;;;;;;-2.85;100.00;93952.97;4971276;28;20051;-64
2023/04/06 02:58:58;;;;;;;23.70;11.55;;;;;;;-2.87;100.00;93957.13;4992363;28;20161;-66
2023/04/06 03:01:26;;;;;;;21.33;10.43;;;;;;;-2.83;100.00;93949.97;4991781;28;20064;-66
2023/04/06 03:03:53;;;;;;;20.73;11.10;;;;;;;-2.84;100.00;93957.25;4992179;28;20046;-66
2023/04/06 03:06:19;;;;;;;22.45;10.52;;;;;;;-2.84;100.00;93953.75;4991709;28;20050;-66
2023/04/06 03:08:47;;;;;;;21.10;10.30;;;;;;;-2.86;100.00;93956.78;4992473;28;20096;-67
2023/04/06 03:11:13;;;;;;;21.33;10.75;;;;;;;-2.87;100.00;93949.84;4991002;28;20039;-67
2023/04/06 03:13:40;;;;;;;22.13;10.63;;;;;;;-2.85;100.00;93952.97;5007230;28;20780;-67
2023/04/06 03:16:07;;;;;;;23.92;12.23;;;;;;;-2.86;100.00;93951.44;4992451;28;20545;-67
2023/04/06 03:18:34;;;;;;;20.92;11.05;;;;;;;-2.85;100.00;93946.81;4991678;28;20384;-66
2023/04/06 03:21:00;;;;;;;22.75;11.48;;;;;;;-2.85;100.00;93954.88;4992143;28;20038;-69
2023/04/06 03:23:27;;;;;;;22.45;10.88;;;;;;;-2.88;100.00;93948.28;4991629;28;20064;-65
2023/04/06 03:25:54;;;;;;;24.03;11.07;;;;;;;-2.94;100.00;93954.94;4992437;28;20096;-67
2023/04/06 03:28:21;;;;;;;20.88;10.60;;;;;;;-2.95;100.00;93953.38;4991236;28;20042;-68
2023/04/06 03:30:48;;;;;;;22.50;11.25;;;;;;;-2.94;100.00;93954.16;4974399;28;20038;-66
2023/04/06 03:33:15;;;;;;;22.20;10.63;;;;;;;-2.96;100.00;93954.47;4991194;28;20042;-65
2023/04/06 03:35:42;;;;;;;22.13;10.63;;;;;;;-2.98;100.00;93953.25;4989330;28;20046;-66
2023/04/06 03:38:08;;;;;;;22.40;11.17;;;;;;;-3.00;100.00;93956.25;4973727;28;20046;-68
2023/04/06 03:40:35;;;;;;;22.33;10.80;;;;;;;-3.05;100.00;93959.94;4967348;28;20048;-68
2023/04/06 03:43:02;;;;;;;46.78;20.33;;;;;;;-3.04;100.00;93955.34;4991297;28;20042;-67
2023/04/06 03:45:29;;;;;;;37.42;16.15;;;;;;;-3.03;100.00;93960.38;4991205;28;20504;-68
2023/04/06 03:47:55;;;;;;;24.50;12.32;;;;;;;-3.05;100.00;93956.47;4991769;28;20527;-66
2023/04/06 03:50:22;;;;;;;24.00;11.20;;;;;;;-3.06;100.00;93960.25;4990953;28;20042;-66
2023/04/06 03:52:49;;;;;;;23.60;11.15;;;;;;;-3.10;100.00;93962.03;4978918;28;20057;-68
2023/04/06 03:55:16;;;;;;;22.08;11.93;;;;;;;-3.10;100.00;93965.53;4990911;28;20136;-67
2023/04/06 03:57:43;;;;;;;22.65;11.75;;;;;;;-3.14;100.00;93959.22;4991404;28;20117;-67
2023/04/06 04:00:10;;;;;;;23.17;11.20;;;;;;;-3.13;100.00;93962.69;4991042;28;20042;-68
2023/04/06 04:02:37;;;;;;;20.43;10.83;;;;;;;-3.15;100.00;93968.38;4990914;28;20138;-67
2023/04/06 04:05:04;;;;;;;23.25;11.15;;;;;;;-3.17;100.00;93967.16;4973764;28;20050;-66
2023/04/06 04:07:31;;;;;;;24.08;12.48;;;;;;;-3.17;100.00;93967.94;4990656;28;20043;-68
2023/04/06 04:09:57;;;;;;;27.05;12.90;;;;;;;-3.19;100.00;93972.06;4991387;28;20043;-67
2023/04/06 04:12:24;;;;;;;25.33;13.30;;;;;;;-3.23;100.00;93967.31;4990706;28;20042;-67
2023/04/06 04:14:51;;;;;;;23.30;11.30;;;;;;;-3.26;100.00;93957.25;4990876;28;20545;-68
2023/04/06 04:17:17;;;;;;;22.20;11.27;;;;;;;-3.28;100.00;93962.16;4990656;28;20038;-65
2023/04/06 04:19:44;;;;;;;23.70;11.60;;;;;;;-3.27;100.00;93958.38;4990734;28;20046;-68
2023/04/06 04:22:11;;;;;;;24.20;11.13;;;;;;;-3.26;100.00;93964.50;4973130;28;20550;-67
2023/04/06 04:24:37;;;;;;;23.75;11.57;;;;;;;-3.27;100.00;93965.63;4990300;28;20487;-67
2023/04/06 04:27:04;;;;;;;21.70;11.10;;;;;;;-3.27;100.00;93968.31;4990674;28;20056;-66
2023/04/06 04:29:31;;;;;;;22.85;11.95;;;;;;;-3.30;100.00;93964.41;4990030;28;20066;-67
2023/04/06 04:31:58;;;;;;;23.33;11.88;;;;;;;-3.33;100.00;93969.63;4990513;28;20050;-67
2023/04/06 04:34:25;;;;;;;23.60;12.10;;;;;;;-3.37;100.00;93968.72;4989969;28;20085;-68
2023/04/06 04:36:52;;;;;;;23.75;11.93;;;;;;;-3.39;100.00;93971.72;4979559;28;20492;-65
2023/04/06 04:39:19;;;;;;;23.03;11.30;;;;;;;-3.38;100.00;93975.16;4973444;28;20043;-67
2023/04/06 04:41:46;;;;;;;23.83;11.15;;;;;;;-3.41;100.00;93966.66;4990643;28;20046;-65
2023/04/06 04:44:13;;;;;;;22.40;11.70;;;;;;;-3.42;100.00;93966.97;4990045;28;20518;-67
2023/04/06 04:46:41;;;;;;;24.40;12.85;;;;;;;-3.40;100.00;93972.84;4989490;28;22131;-70
2023/04/06 04:49:07;;;;;;;41.78;18.70;;;;;;;-3.41;100.00;93971.25;4990145;28;20525;-66
2023/04/06 04:51:36;;;;;;;25.87;12.50;;;;;;;-3.40;100.00;93975.53;4989898;28;20094;-67
2023/04/06 04:54:02;;;;;;;26.45;12.70;;;;;;;-3.38;100.00;93967.94;4989768;28;20120;-67
2023/04/06 04:56:29;;;;;;;32.42;15.80;;;;;;;-3.34;100.00;93973.41;4989827;28;20076;-67
2023/04/06 04:58:56;;;;;;;23.25;11.88;;;;;;;-3.37;100.00;93974.84;4990022;28;20049;-66
2023/04/06 05:01:23;;;;;;;22.55;11.85;;;;;;;-3.33;100.00;93981.13;4989263;28;20495;-66
2023/04/06 05:03:50;;;;;;;24.07;12.53;;;;;;;-3.27;100.00;93977.16;4990071;28;20050;-68
2023/04/06 05:06:18;;;;;;;38.30;17.60;;;;;;;-3.22;100.00;93976.97;4989226;28;20096;-67
2023/04/06 05:08:45;;;;;;;28.02;13.35;;;;;;;-3.13;100.00;93984.16;4989887;28;20499;-68
2023/04/06 05:11:12;;;;;;;24.58;11.98;;;;;;;-3.11;100.00;93988.09;4989577;28;20049;-67
2023/04/06 05:13:39;;;;;;;25.65;12.40;;;;;;;-3.10;100.00;93986.19;4989374;28;20107;-66
2023/04/06 05:16:06;;;;;;;26.60;13.83;;;;;;;-3.17;100.00;93994.00;4989866;28;20068;-66
2023/04/06 05:18:33;;;;;;;28.70;13.50;;;;;;;-3.06;100.00;93990.59;4989271;28;20042;-66
2023/04/06 05:21:00;;;;;;;25.73;13.77;;;;;;;-2.94;100.00;93987.16;4989428;28;20048;-67
2023/04/06 05:23:27;;;;;;;28.13;13.15;;;;;;;-2.94;100.00;93989.84;4988344;28;20042;-67
2023/04/06 05:25:53;;;;;;;27.38;13.07;;;;;;;-3.01;100.00;93986.91;4988829;28;20116;-66
2023/04/06 05:28:20;;;;;;;24.90;12.50;;;;;;;-2.89;100.00;93986.97;4988061;28;20034;-65
2023/04/06 05:30:47;;;;;;;29.42;13.88;;;;;;;-2.92;100.00;93990.31;4988950;28;20092;-66
2023/04/06 05:33:14;;;;;;;26.38;13.98;;;;;;;-2.88;100.00;93995.81;4988017;28;20403;-66
2023/04/06 05:35:41;;;;;;;25.80;13.65;;;;;;;-2.83;100.00;93990.25;4995703;28;20414;-65
2023/04/06 05:38:10;;;;;;;30.55;14.93;;;;;;;-2.77;100.00;93997.00;4988890;28;20060;-67
2023/04/06 05:40:38;;;;;;;26.77;13.67;;;;;;;-2.69;100.00;93988.06;4988601;28;20043;-68
2023/04/06 05:43:04;;;;;;;22.30;11.95;;;;;;;-2.58;100.00;93995.72;4988744;28;20064;-67
2023/04/06 05:45:31;;;;;;;24.23;12.50;;;;;;;-2.58;100.00;93996.50;4988276;28;20047;-67
2023/04/06 05:47:58;;;;;;;25.50;11.50;;;;;;;-2.44;100.00;93997.00;4988728;28;20611;-65
2023/04/06 05:50:25;;;;;;;27.95;12.85;;;;;;;-2.30;100.00;93994.00;4988197;28;20051;-67
2023/04/06 05:52:52;;;;;;;24.80;12.10;;;;;;;-2.19;100.00;93999.78;4988580;28;20051;-64
2023/04/06 05:55:18;;;;;;;22.05;12.38;;;;;;;-2.12;100.00;93999.22;4988166;28;20432;-68
2023/04/06 05:57:45;;;;;;;27.10;14.48;;;;;;;-2.18;100.00;94001.31;4974495;28;20048;-66
2023/04/06 06:00:12;;;;;;;30.10;13.80;;;;;;;-2.15;100.00;94002.56;4988626;28;20556;-66
2023/04/06 06:02:39;;;;;;;30.23;14.95;;;;;;;-2.12;100.00;94004.59;5003914;28;20654;-65
2023/04/06 06:05:07;;;;;;;27.23;13.17;;;;;;;-2.07;100.00;94007.88;4987833;28;20042;-63
2023/04/06 06:07:34;;;;;;;29.98;14.90;;;;;;;-1.99;100.00;94002.72;4970947;28;20039;-66
2023/04/06 06:10:00;;;;;;;40.17;19.15;;;;;;;-2.24;100.00;94008.03;4979437;28;20537;-68
2023/04/06 06:12:27;;;;;;;36.42;15.32;;;;;;;-2.05;100.00;94002.94;4988080;28;20402;-66
2023/04/06 06:14:55;;;;;;;40.25;17.67;;;;;;;-2.07;100.00;94007.09;4988135;28;20052;-64
2023/04/06 06:17:22;;;;;;;31.37;14.43;;;;;;;-1.89;100.00;94007.66;4988027;28;20058;-67
2023/04/06 06:19:49;;;;;;;32.22;14.43;;;;;;;-1.98;100.00;94013.13;4988595;28;20069;-64
2023/04/06 06:22:15;;;;;;;29.77;13.70;;;;;;;-1.82;100.00;94007.91;4987819;28;20080;-66
2023/04/06 06:24:42;;;;;;;31.17;15.07;;;;;;;-1.87;100.00;94010.78;4988504;28;20153;-67
2023/04/06 06:27:09;;;;;;;31.25;16.00;;;;;;;-1.82;100.00;94007.91;4988481;28;20050;-67
2023/04/06 06:29:35;;;;;;;26.77;14.37;;;;;;;-1.57;100.00;94007.91;4987900;28;20121;-66
2023/04/06 06:32:04;;;;;;;26.65;14.05;;;;;;;-1.65;100.00;94017.66;4988087;28;20062;-65
2023/04/06 06:34:31;;;;;;;25.55;13.38;;;;;;;-1.43;100.00;94011.03;4987828;28;20122;-67
2023/04/06 06:36:57;;;;;;;27.00;13.48;;;;;;;-1.59;100.00;94016.31;4988469;28;20108;-66
2023/04/06 06:39:24;;;;;;;26.73;14.80;;;;;;;-1.44;100.00;94009.50;4988012;28;20104;-64
2023/04/06 06:41:51;;;;;;;25.50;13.30;;;;;;;-1.21;100.00;94015.19;4980104;28;20054;-67
2023/04/06 06:44:18;;;;;;;28.13;14.07;;;;;;;-0.91;100.00;94012.22;4968480;28;20057;-67
2023/04/06 06:46:45;;;;;;;26.52;13.43;;;;;;;-0.91;100.00;94007.63;4972491;28;20046;-66
2023/04/06 06:49:12;;;;;;;25.80;13.93;;;;;;;-0.72;100.00;94011.63;4972868;28;20517;-64
2023/04/06 06:51:39;;;;;;;24.73;13.95;;;;;;;-0.43;100.00;94008.59;4972159;28;20047;-68
2023/04/06 06:54:06;;;;;;;28.70;14.80;;;;;;;1.52;100.00;94009.38;4989221;28;20101;-65
2023/04/06 06:56:35;;;;;;;23.33;13.65;;;;;;;4.82;79.47;94012.47;4991621;28;20041;-66
2023/04/06 06:59:02;;;;;;;25.40;14.13;;;;;;;7.18;65.76;94004.38;4981371;28;20459;-67
2023/04/06 07:01:29;;;;;;;24.65;13.98;;;;;;;8.83;57.08;93997.50;4988623;28;20407;-66
2023/04/06 07:03:56;;;;;;;20.70;13.85;;;;;;;9.05;51.07;93992.63;4991514;28;20054;-67
2023/04/06 07:06:22;;;;;;;21.73;14.37;;;;;;;9.84;48.93;94002.81;4990739;28;20047;-67
2023/04/06 07:08:49;;;;;;;18.67;13.90;;;;;;;10.67;45.80;94000.66;4991627;28;20131;-64
2023/04/06 07:11:16;;;;;;;19.83;13.75;;;;;;;11.00;43.31;93992.69;4991151;28;20056;-67
2023/04/06 07:13:43;;;;;;;18.60;13.63;;;;;;;12.56;40.20;93995.72;4991516;28;20046;-67
2023/04/06 07:16:09;;;;;;;21.85;13.80;;;;;;;13.33;38.22;93992.84;4991622;28;20575;-66
2023/04/06 07:18:36;;;;;;;18.77;13.83;;;;;;;13.11;38.80;93992.53;4991315;28;20052;-65
2023/04/06 07:21:03;;;;;;;16.95;12.98;;;;;;;15.54;35.13;93986.91;4991833;28;20396;-66
2023/04/06 07:23:30;;;;;;;18.58;13.95;;;;;;;16.36;32.81;93988.84;4991073;28;20050;-65
2023/04/06 07:25:56;;;;;;;18.52;13.25;;;;;;;14.88;34.12;93984.66;4991447;28;20042;-67
2023/04/06 07:28:23;;;;;;;18.67;13.40;;;;;;;14.85;33.49;93988.31;4990943;28;20153;-67
2023/04/06 07:30:50;;;;;;;21.73;14.60;;;;;;;15.92;32.21;93986.06;4991443;28;20046;-67
2023/04/06 07:33:17;;;;;;;20.35;13.60;;;;;;;15.44;33.01;93985.28;4990361;28;20035;-67
2023/04/06 07:35:43;;;;;;;17.67;13.52;;;;;;;16.63;31.16;93988.25;4970381;28;20134;-65
2023/04/06 07:38:10;;;;;;;16.88;13.43;;;;;;;17.74;29.98;93983.88;4989314;28;20129;-67
2023/04/06 07:40:37;;;;;;;18.10;13.88;;;;;;;17.59;29.10;93982.94;4990474;28;20484;-68
2023/04/06 07:43:04;;;;;;;17.07;14.03;;;;;;;17.02;29.85;93983.22;4990701;28;20557;-67
2023/04/06 07:45:31;;;;;;;17.33;13.13;;;;;;;18.75;28.73;93985.88;4990521;28;20120;-68
2023/04/06 07:47:58;;;;;;;17.88;13.32;;;;;;;19.51;26.66;93985.16;4989117;28;20046;-66
2023/04/06 07:50:25;;;;;;;16.35;13.50;;;;;;;19.91;26.68;93979.19;4983342;28;20158;-67
2023/04/06 07:52:51;;;;;;;19.48;13.95;;;;;;;18.52;26.91;93983.75;4987600;28;20042;-67
2023/04/06 07:55:18;;;;;;;17.23;13.80;;;;;;;18.59;27.20;93980.66;4990282;28;20051;-67
2023/04/06 07:57:45;;;;;;;17.30;12.93;;;;;;;19.40;26.62;93976.53;4989736;28;20042;-65
2023/04/06 08:00:12;;;;;;;19.27;13.55;;;;;;;21.41;24.48;93978.06;4990957;28;20587;-67
2023/04/06 08:02:39;;;;;;;16.02;13.27;;;;;;;22.31;22.81;93979.28;4989065;28;20265;-67
2023/04/06 08:05:07;;;;;;;15.27;12.15;;;;;;;23.54;21.27;93978.13;4989738;28;20053;-66
2023/04/06 08:07:35;;;;;;;15.43;12.67;;;;;;;23.39;21.26;93977.53;4989685;28;20122;-65
2023/04/06 08:10:02;;;;;;;15.27;12.30;;;;;;;22.92;21.93;93975.59;4981411;28;20517;-68
2023/04/06 08:12:29;;;;;;;17.52;11.85;;;;;;;23.10;21.69;93970.91;4969316;28;20046;-69
2023/04/06 08:14:56;;;;;;;14.95;11.25;;;;;;;21.13;22.33;93972.06;4966952;28;20104;-68
2023/04/06 08:17:23;;;;;;;12.65;10.00;;;;;;;19.94;23.24;93964.34;4990053;28;20065;-68
2023/04/06 08:19:50;;;;;;;11.47;9.80;;;;;;;18.21;23.07;93970.03;4990493;28;20056;-68
2023/04/06 08:22:17;;;;;;;12.82;10.07;;;;;;;21.83;20.71;93962.16;4989882;28;20406;-67
2023/04/06 08:24:43;;;;;;;13.63;11.38;;;;;;;19.21;23.34;93959.16;4990296;28;20053;-69
2023/04/06 08:27:10;;;;;;;13.18;11.35;;;;;;;21.87;22.41;93957.91;4990237;28;20044;-68
2023/04/06 08:29:37;;;;;;;14.70;11.90;;;;;;;21.65;21.89;93958.38;4989603;28;20046;-68
2023/04/06 08:32:05;;;;;;;12.30;9.80;;;;;;;22.83;20.77;93953.38;4989969;28;20475;-68
2023/04/06 08:34:33;;;;;;;10.68;8.48;;;;;;;21.50;20.23;93960.47;4989396;28;20058;-66
2023/04/06 08:37:00;;;;;;;10.93;8.20;;;;;;;21.45;20.16;93955.53;4989970;28;20043;-66
2023/04/06 08:39:28;;;;;;;10.95;8.15;;;;;;;21.22;20.25;93954.44;4989496;28;20038;-68
2023/04/06 08:41:57;;;;;;;11.02;8.30;;;;;;;22.03;19.41;93955.81;4989720;28;20054;-68
2023/04/06 08:44:24;;;;;;;11.30;8.47;;;;;;;23.92;17.47;93948.84;4989103;28;20074;-66
2023/04/06 08:46:52;;;;;;;10.18;8.10;;;;;;;21.06;19.20;93961.28;4989816;28;20050;-68
2023/04/06 08:49:20;;;;;;;10.20;8.40;;;;;;;20.58;19.37;93956.66;4989144;28;20415;-65
2023/04/06 08:51:49;;;;;;;11.43;8.35;;;;;;;21.71;18.98;93956.44;4989825;28;20042;-68
2023/04/06 08:54:16;;;;;;;9.73;8.00;;;;;;;22.05;19.71;93964.47;4989289;28;20476;-69
2023/04/06 08:56:43;;;;;;;10.17;8.40;;;;;;;20.79;19.17;93949.19;4989375;28;20042;-68
2023/04/06 08:59:10;;;;;;;11.32;8.30;;;;;;;21.31;19.01;93962.69;4989681;28;20085;-68
2023/04/06 09:01:41;;;;;;;11.10;7.88;;;;;;;22.55;17.91;93953.09;4989029;28;20073;-66
2023/04/06 09:04:10;;;;;;;12.35;8.23;;;;;;;23.45;17.45;93951.09;4989661;28;20038;-67
2023/04/06 09:06:40;;;;;;;9.25;7.63;;;;;;;18.99;20.30;93951.06;4988595;28;20049;-66
2023/04/06 09:09:07;;;;;;;10.37;8.37;;;;;;;17.67;21.77;93964.78;4989435;28;20047;-68
2023/04/06 09:11:54;;;;;;;9.50;7.70;;;;;;;22.94;17.64;93953.47;4988814;28;20122;-69
2023/04/06 09:14:38;;;;;;;9.90;6.90;;;;;;;22.40;17.13;93953.22;4977889;28;20053;-69
2023/04/06 09:17:05;;;;;;;8.88;6.75;;;;;;;22.93;16.49;93956.78;4989140;28;20042;-67
2023/04/06 09:19:32;;;;;;;8.43;6.65;;;;;;;23.83;15.67;93942.69;4988803;28;20060;-63
2023/04/06 09:22:08;;;;;;;6.97;6.00;;;;;;;23.07;15.72;93960.72;4988919;28;20046;-64
2023/04/06 09:24:46;;;;;;;7.97;6.57;;;;;;;22.36;16.16;93955.47;4988650;28;20039;-65
2023/04/06 09:27:13;;;;;;;7.30;5.90;;;;;;;22.74;15.58;93947.97;4989057;28;20061;-66
2023/04/06 09:29:44;;;;;;;8.30;5.97;;;;;;;24.52;14.69;93934.03;4988280;28;21651;-66
2023/04/06 09:32:11;;;;;;;8.05;5.95;;;;;;;24.56;13.93;93942.19;4989047;28;20486;-65
2023/04/06 09:34:38;;;;;;;7.83;6.00;;;;;;;22.25;16.52;93946.94;4988619;28;20120;-63
2023/04/06 09:37:16;;;;;;;7.93;6.25;;;;;;;23.63;14.81;93947.13;4988648;28;20058;-65
2023/04/06 09:39:42;;;;;;;10.60;7.75;;;;;;;22.57;14.70;93942.19;4988075;28;20183;-65
2023/04/06 09:42:10;;;;;;;8.27;5.78;;;;;;;23.00;14.71;93944.34;4988687;28;20042;-65
2023/04/06 09:44:37;;;;;;;8.05;5.90;;;;;;;23.93;14.65;93944.00;4988161;28;20046;-65
2023/04/06 09:47:07;;;;;;;10.60;7.60;;;;;;;23.42;13.86;93940.09;4988887;28;20058;-65
2023/04/06 09:49:35;;;;;;;6.97;5.45;;;;;;;24.42;13.42;93930.66;4988221;28;20052;-65
2023/04/06 09:52:04;;;;;;;7.65;6.28;;;;;;;22.04;15.18;93929.41;4988698;28;20050;-65
2023/04/06 09:54:32;;;;;;;7.28;5.90;;;;;;;21.34;15.37;93937.34;4988316;28;20630;-66
2023/04/06 09:57:11;;;;;;;7.18;5.55;;;;;;;22.20;14.96;93925.28;4988697;28;20064;-68
2023/04/06 09:59:43;;;;;;;7.10;5.30;;;;;;;23.19;14.37;93931.56;4987946;28;20153;-68
2023/04/06 10:02:22;;;;;;;7.65;5.57;;;;;;;24.61;13.58;93933.78;4988881;28;20476;-68
2023/04/06 10:04:58;;;;;;;7.20;5.40;;;;;;;24.62;13.18;93923.34;5002870;28;20590;-67
2023/04/06 10:07:26;;;;;;;8.50;5.53;;;;;;;23.29;13.90;93932.13;4988357;28;20054;-68
2023/04/06 10:09:54;;;;;;;7.32;5.57;;;;;;;23.38;14.34;93933.97;4988952;28;20060;-68
2023/04/06 10:12:21;;;;;;;6.40;5.33;;;;;;;21.86;15.29;93931.22;4988226;28;20096;-65
2023/04/06 10:14:49;;;;;;;8.82;5.78;;;;;;;22.71;15.19;93937.75;4988419;28;20092;-65
2023/04/06 10:17:15;;;;;;;7.45;5.80;;;;;;;25.19;13.27;93921.31;4988065;28;20457;-65
2023/04/06 10:19:45;;;;;;;8.00;5.32;;;;;;;25.28;12.99;93935.13;4989191;28;20042;-65
2023/04/06 10:22:35;;;;;;;8.00;6.22;;;;;;;23.64;14.34;93928.28;4992141;28;20069;-64
2023/04/06 10:25:02;;;;;;;7.73;6.50;;;;;;;23.04;15.19;93925.31;4991716;28;21565;-65
2023/04/06 10:27:29;;;;;;;7.75;6.30;;;;;;;20.65;16.70;93922.84;4991904;28;20306;-65
2023/04/06 10:30:04;;;;;;;8.18;6.10;;;;;;;23.78;14.26;93918.94;4992333;28;20112;-63
2023/04/06 10:32:36;;;;;;;7.20;5.88;;;;;;;25.76;12.31;93927.66;4991625;28;20479;-65
2023/04/06 10:35:11;;;;;;;7.72;6.20;;;;;;;23.61;14.48;93927.25;4992379;28;20418;-63
2023/04/06 10:38:02;;;;;;;8.97;6.40;;;;;;;24.21;13.80;93920.91;4991872;28;20046;-65
2023/04/06 10:40:31;;;;;;;10.32;6.30;;;;;;;26.50;12.09;93923.25;4991537;28;20127;-65
2023/04/06 10:43:09;;;;;;;7.95;5.40;;;;;;;25.95;12.19;93917.38;4983790;28;20064;-65
2023/04/06 10:45:37;;;;;;;6.85;5.57;;;;;;;24.82;12.63;93916.72;4991562;28;20042;-65
2023/04/06 10:48:18;;;;;;;7.70;6.00;;;;;;;26.12;12.28;93920.13;4992173;28;20450;-65
2023/04/06 10:50:48;;;;;;;12.70;7.70;;;;;;;25.80;13.23;93920.47;5006490;28;21696;-65
2023/04/06 10:53:42;;;;;;;9.65;6.60;;;;;;;24.82;14.15;93927.94;4991600;28;20061;-63
2023/04/06 10:56:11;;;;;;;12.90;7.40;;;;;;;22.86;15.40;93926.44;4990375;28;20092;-65
2023/04/06 10:58:45;;;;;;;9.25;7.07;;;;;;;23.04;16.38;93930.94;4991538;28;20046;-66
2023/04/06 11:01:15;;;;;;;11.30;7.88;;;;;;;22.34;16.38;93924.44;4991997;28;20060;-65
2023/04/06 11:03:45;;;;;;;9.80;7.50;;;;;;;22.53;16.33;93916.47;5006372;28;20407;-65
2023/04/06 11:06:25;;;;;;;9.23;7.47;;;;;;;20.20;18.27;93913.66;4991601;28;20157;-63
2023/04/06 11:08:53;;;;;;;9.40;7.63;;;;;;;19.01;19.92;93913.19;5005174;28;20050;-65
2023/04/06 11:11:21;;;;;;;10.13;7.60;;;;;;;21.25;18.30;93917.16;4991414;28;20039;-65
2023/04/06 11:13:50;;;;;;;11.75;8.48;;;;;;;21.33;17.68;93915.53;4991112;28;20047;-63
2023/04/06 11:16:19;;;;;;;9.43;8.23;;;;;;;19.83;18.26;93910.41;4991011;28;20439;-65
2023/04/06 11:19:03;;;;;;;9.23;7.80;;;;;;;19.26;19.39;93905.69;4991293;28;20039;-67